KGVT/GVT METAR and TAF weather

Enter ICAO airport designator
Station Type Date Time Source
KGVT METAR 2020/01/19 00:10 UTC NOAA

KGVT 190010Z AUTO 01013G20KT 10SM CLR 11/M05 A3036 RMK AO2


Station Type Date Time Source
KGVT Decoded METAR 2020/01/19 00:10 UTC NOAA

Greenville / Majors, TX, United States (KGVT) 33-04N 096-04W
Jan 18, 2020 - 07:10 PM EST / 2020.01.19 0010 UTC
Wind: from the N (010 degrees) at 15 MPH (13 KT) gusting to 23 MPH (20 KT):0
Visibility: 10 mile(s):0
Sky conditions: clear
Temperature: 51 F (11 C)
Dew Point: 23 F (-5 C)
Relative Humidity: 32%
Pressure (altimeter): 30.36 in. Hg (1028 hPa)
ob: KGVT 190010Z AUTO 01013G20KT 10SM CLR 11/M05 A3036 RMK AO2
cycle: 0

Station Type Date Time Source
KGVT TAF UTC NOAA

Error!

Example: see airport list